sensor_id;sensor_type;location;lat;lon;timestamp;pressure;altitude;pressure_sealevel;temperature;humidity
12626;BME280;6378;42.684;23.372;2023-03-22T00:00:43;94758.94;;;10.67;100.00
12626;BME280;6378;42.684;23.372;2023-03-22T00:03:09;94759.66;;;10.64;100.00
12626;BME280;6378;42.684;23.372;2023-03-22T00:05:34;94759.19;;;10.62;100.00
12626;BME280;6378;42.684;23.372;2023-03-22T00:08:00;94746.75;;;10.54;100.00
12626;BME280;6378;42.684;23.372;2023-03-22T00:10:30;94749.28;;;10.66;100.00
12626;BME280;6378;42.684;23.372;2023-03-22T00:12:56;94749.72;;;10.68;100.00
12626;BME280;6378;42.684;23.372;2023-03-22T00:15:22;94746.53;;;10.63;100.00
12626;BME280;6378;42.684;23.372;2023-03-22T00:17:48;94757.47;;;10.70;100.00
12626;BME280;6378;42.684;23.372;2023-03-22T00:20:17;94755.53;;;10.70;100.00
12626;BME280;6378;42.684;23.372;2023-03-22T00:22:44;94748.50;;;10.66;100.00
12626;BME280;6378;42.684;23.372;2023-03-22T00:25:10;94749.16;;;10.59;100.00
12626;BME280;6378;42.684;23.372;2023-03-22T00:27:35;94754.66;;;10.66;100.00
12626;BME280;6378;42.684;23.372;2023-03-22T00:30:01;94751.06;;;10.59;100.00
12626;BME280;6378;42.684;23.372;2023-03-22T00:32:27;94753.81;;;10.62;100.00
12626;BME280;6378;42.684;23.372;2023-03-22T00:34:52;94750.28;;;10.58;100.00
12626;BME280;6378;42.684;23.372;2023-03-22T00:37:17;94743.50;;;10.64;100.00
12626;BME280;6378;42.684;23.372;2023-03-22T00:39:43;94716.25;;;10.31;100.00
12626;BME280;6378;42.684;23.372;2023-03-22T00:42:09;94741.69;;;10.53;100.00
12626;BME280;6378;42.684;23.372;2023-03-22T00:44:34;94711.56;;;10.28;100.00
12626;BME280;6378;42.684;23.372;2023-03-22T00:47:00;94713.28;;;10.36;100.00
12626;BME280;6378;42.684;23.372;2023-03-22T00:49:26;94747.59;;;10.58;100.00
12626;BME280;6378;42.684;23.372;2023-03-22T00:51:51;94740.91;;;10.52;100.00
12626;BME280;6378;42.684;23.372;2023-03-22T00:54:17;94742.75;;;10.48;100.00
12626;BME280;6378;42.684;23.372;2023-03-22T00:56:43;94732.97;;;10.40;100.00
12626;BME280;6378;42.684;23.372;2023-03-22T00:59:15;94747.00;;;10.49;100.00
12626;BME280;6378;42.684;23.372;2023-03-22T01:01:41;94742.13;;;10.55;100.00
12626;BME280;6378;42.684;23.372;2023-03-22T01:04:07;94742.41;;;10.50;100.00
12626;BME280;6378;42.684;23.372;2023-03-22T01:06:33;94742.03;;;10.51;100.00
12626;BME280;6378;42.684;23.372;2023-03-22T01:08:58;94716.31;;;10.34;100.00
12626;BME280;6378;42.684;23.372;2023-03-22T01:11:24;94740.97;;;10.56;100.00
12626;BME280;6378;42.684;23.372;2023-03-22T01:13:50;94724.25;;;10.47;100.00
12626;BME280;6378;42.684;23.372;2023-03-22T01:16:16;94722.53;;;10.54;100.00
12626;BME280;6378;42.684;23.372;2023-03-22T01:18:42;94703.66;;;10.35;100.00
12626;BME280;6378;42.684;23.372;2023-03-22T01:21:07;94725.41;;;10.46;100.00
12626;BME280;6378;42.684;23.372;2023-03-22T01:23:33;94718.09;;;10.46;100.00
12626;BME280;6378;42.684;23.372;2023-03-22T01:25:59;94718.53;;;10.48;100.00
12626;BME280;6378;42.684;23.372;2023-03-22T01:28:26;94713.78;;;10.41;100.00
12626;BME280;6378;42.684;23.372;2023-03-22T01:30:51;94715.50;;;10.50;100.00
12626;BME280;6378;42.684;23.372;2023-03-22T01:33:17;94719.66;;;10.47;100.00
12626;BME280;6378;42.684;23.372;2023-03-22T01:35:42;94706.13;;;10.43;100.00
12626;BME280;6378;42.684;23.372;2023-03-22T01:38:08;94715.53;;;10.34;100.00
12626;BME280;6378;42.684;23.372;2023-03-22T01:40:33;94710.59;;;10.36;100.00
12626;BME280;6378;42.684;23.372;2023-03-22T01:42:59;94713.41;;;10.24;100.00
12626;BME280;6378;42.684;23.372;2023-03-22T01:48:14;94702.75;;;9.96;100.00
12626;BME280;6378;42.684;23.372;2023-03-22T01:50:45;94708.78;;;10.09;100.00
12626;BME280;6378;42.684;23.372;2023-03-22T01:53:13;94695.88;;;9.98;100.00
12626;BME280;6378;42.684;23.372;2023-03-22T01:55:43;94703.78;;;9.91;100.00
12626;BME280;6378;42.684;23.372;2023-03-22T01:58:09;94712.09;;;10.02;100.00
12626;BME280;6378;42.684;23.372;2023-03-22T02:00:35;94706.31;;;9.84;100.00
12626;BME280;6378;42.684;23.372;2023-03-22T02:03:00;94705.25;;;9.89;100.00
12626;BME280;6378;42.684;23.372;2023-03-22T02:05:26;94714.97;;;9.93;100.00
12626;BME280;6378;42.684;23.372;2023-03-22T02:07:52;94707.69;;;9.94;100.00
12626;BME280;6378;42.684;23.372;2023-03-22T02:10:23;94714.97;;;9.93;100.00
12626;BME280;6378;42.684;23.372;2023-03-22T02:15:59;94716.34;;;9.87;100.00
12626;BME280;6378;42.684;23.372;2023-03-22T02:24:20;94718.53;;;9.82;100.00
12626;BME280;6378;42.684;23.372;2023-03-22T02:27:21;94722.63;;;9.91;100.00
12626;BME280;6378;42.684;23.372;2023-03-22T02:32:43;94723.13;;;9.81;100.00
12626;BME280;6378;42.684;23.372;2023-03-22T02:49:28;94744.19;;;10.11;100.00
12626;BME280;6378;42.684;23.372;2023-03-22T02:57:49;94743.81;;;10.12;100.00
12626;BME280;6378;42.684;23.372;2023-03-22T03:00:18;94734.56;;;10.10;100.00
12626;BME280;6378;42.684;23.372;2023-03-22T03:02:49;94739.00;;;10.18;100.00
12626;BME280;6378;42.684;23.372;2023-03-22T03:05:17;94746.38;;;10.21;100.00
12626;BME280;6378;42.684;23.372;2023-03-22T03:07:47;94734.47;;;10.22;100.00
12626;BME280;6378;42.684;23.372;2023-03-22T03:10:16;94737.94;;;10.07;100.00
12626;BME280;6378;42.684;23.372;2023-03-22T03:12:42;94732.19;;;10.08;100.00
12626;BME280;6378;42.684;23.372;2023-03-22T03:15:14;94744.00;;;10.04;100.00
12626;BME280;6378;42.684;23.372;2023-03-22T03:20:58;94742.88;;;10.05;100.00
12626;BME280;6378;42.684;23.372;2023-03-22T03:23:51;94737.00;;;9.83;100.00
12626;BME280;6378;42.684;23.372;2023-03-22T03:28:53;94748.25;;;10.05;100.00
12626;BME280;6378;42.684;23.372;2023-03-22T03:31:36;94744.44;;;10.06;100.00
12626;BME280;6378;42.684;23.372;2023-03-22T03:37:03;94749.47;;;10.07;100.00
12626;BME280;6378;42.684;23.372;2023-03-22T03:39:31;94752.66;;;10.13;100.00
12626;BME280;6378;42.684;23.372;2023-03-22T03:42:00;94745.03;;;10.15;100.00
12626;BME280;6378;42.684;23.372;2023-03-22T03:44:28;94750.59;;;10.22;100.00
12626;BME280;6378;42.684;23.372;2023-03-22T03:46:55;94746.63;;;10.16;100.00
12626;BME280;6378;42.684;23.372;2023-03-22T03:49:22;94747.13;;;10.06;100.00
12626;BME280;6378;42.684;23.372;2023-03-22T03:51:51;94744.97;;;9.95;100.00
12626;BME280;6378;42.684;23.372;2023-03-22T03:54:17;94746.53;;;9.96;100.00
12626;BME280;6378;42.684;23.372;2023-03-22T03:56:43;94752.06;;;10.04;100.00
12626;BME280;6378;42.684;23.372;2023-03-22T03:59:08;94723.81;;;9.78;100.00
12626;BME280;6378;42.684;23.372;2023-03-22T04:01:34;94751.47;;;9.94;100.00
12626;BME280;6378;42.684;23.372;2023-03-22T04:04:00;94733.69;;;9.74;100.00
12626;BME280;6378;42.684;23.372;2023-03-22T04:06:26;94756.78;;;10.07;100.00
12626;BME280;6378;42.684;23.372;2023-03-22T04:08:52;94765.84;;;10.02;100.00
12626;BME280;6378;42.684;23.372;2023-03-22T04:11:20;94762.31;;;9.98;100.00
12626;BME280;6378;42.684;23.372;2023-03-22T04:13:45;94762.50;;;9.89;100.00
12626;BME280;6378;42.684;23.372;2023-03-22T04:16:11;94758.41;;;9.95;100.00
12626;BME280;6378;42.684;23.372;2023-03-22T04:18:37;94761.91;;;9.96;100.00
12626;BME280;6378;42.684;23.372;2023-03-22T04:21:02;94760.22;;;10.07;100.00
12626;BME280;6378;42.684;23.372;2023-03-22T04:23:29;94747.47;;;9.88;100.00
12626;BME280;6378;42.684;23.372;2023-03-22T04:25:57;94767.09;;;10.05;100.00
12626;BME280;6378;42.684;23.372;2023-03-22T04:28:24;94769.09;;;9.92;100.00
12626;BME280;6378;42.684;23.372;2023-03-22T04:30:50;94745.81;;;9.68;100.00
12626;BME280;6378;42.684;23.372;2023-03-22T04:33:17;94743.13;;;9.68;100.00
12626;BME280;6378;42.684;23.372;2023-03-22T04:35:43;94774.47;;;9.92;100.00
12626;BME280;6378;42.684;23.372;2023-03-22T04:38:10;94769.94;;;9.80;100.00
12626;BME280;6378;42.684;23.372;2023-03-22T04:40:36;94777.06;;;9.88;100.00
12626;BME280;6378;42.684;23.372;2023-03-22T04:43:03;94773.06;;;9.82;100.00
12626;BME280;6378;42.684;23.372;2023-03-22T04:45:29;94743.66;;;9.58;100.00
12626;BME280;6378;42.684;23.372;2023-03-22T04:47:59;94780.84;;;9.87;100.00
12626;BME280;6378;42.684;23.372;2023-03-22T04:50:24;94783.75;;;9.94;100.00
12626;BME280;6378;42.684;23.372;2023-03-22T04:52:52;94790.69;;;9.95;100.00
12626;BME280;6378;42.684;23.372;2023-03-22T04:55:18;94788.31;;;9.94;100.00
12626;BME280;6378;42.684;23.372;2023-03-22T04:57:43;94795.69;;;9.97;100.00
12626;BME280;6378;42.684;23.372;2023-03-22T05:00:09;94794.81;;;9.93;100.00
12626;BME280;6378;42.684;23.372;2023-03-22T05:02:35;94793.91;;;10.01;100.00
12626;BME280;6378;42.684;23.372;2023-03-22T05:05:03;94799.63;;;10.15;100.00
12626;BME280;6378;42.684;23.372;2023-03-22T05:07:29;94802.06;;;10.36;100.00
12626;BME280;6378;42.684;23.372;2023-03-22T05:09:54;94793.72;;;10.10;100.00
12626;BME280;6378;42.684;23.372;2023-03-22T05:12:20;94805.09;;;10.19;100.00
12626;BME280;6378;42.684;23.372;2023-03-22T05:14:45;94807.78;;;10.19;100.00
12626;BME280;6378;42.684;23.372;2023-03-22T05:17:10;94806.41;;;10.25;100.00
12626;BME280;6378;42.684;23.372;2023-03-22T05:19:36;94808.66;;;10.23;100.00
12626;BME280;6378;42.684;23.372;2023-03-22T05:22:01;94802.41;;;10.19;100.00
12626;BME280;6378;42.684;23.372;2023-03-22T05:24:30;94807.09;;;10.22;100.00
12626;BME280;6378;42.684;23.372;2023-03-22T05:26:55;94821.16;;;10.31;100.00
12626;BME280;6378;42.684;23.372;2023-03-22T05:29:26;94805.63;;;10.24;100.00
12626;BME280;6378;42.684;23.372;2023-03-22T05:31:51;94811.72;;;10.21;100.00
12626;BME280;6378;42.684;23.372;2023-03-22T05:34:16;94819.00;;;10.21;100.00
12626;BME280;6378;42.684;23.372;2023-03-22T05:36:44;94807.69;;;10.15;100.00
12626;BME280;6378;42.684;23.372;2023-03-22T05:39:10;94817.66;;;10.15;100.00
12626;BME280;6378;42.684;23.372;2023-03-22T05:41:36;94820.53;;;10.22;100.00
12626;BME280;6378;42.684;23.372;2023-03-22T05:44:01;94818.53;;;10.19;100.00
12626;BME280;6378;42.684;23.372;2023-03-22T05:46:26;94818.63;;;10.22;100.00
12626;BME280;6378;42.684;23.372;2023-03-22T05:48:52;94742.03;;;9.69;100.00
12626;BME280;6378;42.684;23.372;2023-03-22T05:51:17;94824.53;;;10.28;100.00
12626;BME280;6378;42.684;23.372;2023-03-22T05:53:46;94830.69;;;10.28;100.00
12626;BME280;6378;42.684;23.372;2023-03-22T05:56:13;94836.94;;;10.17;100.00
12626;BME280;6378;42.684;23.372;2023-03-22T05:58:39;94834.25;;;10.32;100.00
12626;BME280;6378;42.684;23.372;2023-03-22T06:01:11;94831.22;;;10.34;100.00
12626;BME280;6378;42.684;23.372;2023-03-22T06:03:38;94836.59;;;10.34;100.00
12626;BME280;6378;42.684;23.372;2023-03-22T06:06:04;94834.63;;;10.31;100.00
12626;BME280;6378;42.684;23.372;2023-03-22T06:08:32;94845.63;;;10.26;100.00
12626;BME280;6378;42.684;23.372;2023-03-22T06:10:58;94841.63;;;10.35;100.00
12626;BME280;6378;42.684;23.372;2023-03-22T06:13:24;94840.00;;;10.31;100.00
12626;BME280;6378;42.684;23.372;2023-03-22T06:15:49;94842.94;;;10.26;100.00
12626;BME280;6378;42.684;23.372;2023-03-22T06:18:15;94850.66;;;10.43;100.00
12626;BME280;6378;42.684;23.372;2023-03-22T06:20:40;94836.19;;;10.82;100.00
12626;BME280;6378;42.684;23.372;2023-03-22T06:23:06;94864.13;;;11.28;100.00
12626;BME280;6378;42.684;23.372;2023-03-22T06:25:32;94848.38;;;10.96;100.00
12626;BME280;6378;42.684;23.372;2023-03-22T06:27:57;94850.13;;;11.04;100.00
12626;BME280;6378;42.684;23.372;2023-03-22T06:30:23;94845.84;;;11.03;100.00
12626;BME280;6378;42.684;23.372;2023-03-22T06:32:48;94842.66;;;10.97;100.00
12626;BME280;6378;42.684;23.372;2023-03-22T06:35:13;94845.00;;;10.99;100.00
12626;BME280;6378;42.684;23.372;2023-03-22T06:37:40;94859.31;;;11.03;100.00
12626;BME280;6378;42.684;23.372;2023-03-22T06:40:06;94849.50;;;10.95;100.00
12626;BME280;6378;42.684;23.372;2023-03-22T06:42:31;94861.94;;;10.99;100.00
12626;BME280;6378;42.684;23.372;2023-03-22T06:44:58;94866.28;;;11.04;100.00
12626;BME280;6378;42.684;23.372;2023-03-22T06:47:23;94852.31;;;10.98;100.00
12626;BME280;6378;42.684;23.372;2023-03-22T06:49:49;94857.03;;;11.05;100.00
12626;BME280;6378;42.684;23.372;2023-03-22T06:52:14;94822.09;;;10.89;100.00
12626;BME280;6378;42.684;23.372;2023-03-22T06:54:40;94854.94;;;11.14;100.00
12626;BME280;6378;42.684;23.372;2023-03-22T06:57:05;94855.63;;;11.11;100.00
12626;BME280;6378;42.684;23.372;2023-03-22T06:59:31;94872.38;;;11.20;100.00
12626;BME280;6378;42.684;23.372;2023-03-22T07:01:57;94867.53;;;11.10;100.00
12626;BME280;6378;42.684;23.372;2023-03-22T07:04:23;94856.47;;;10.96;100.00
12626;BME280;6378;42.684;23.372;2023-03-22T07:06:49;94855.50;;;11.04;100.00
12626;BME280;6378;42.684;23.372;2023-03-22T07:09:15;94857.59;;;10.95;100.00
12626;BME280;6378;42.684;23.372;2023-03-22T07:11:41;94867.09;;;10.89;100.00
12626;BME280;6378;42.684;23.372;2023-03-22T07:14:06;94849.97;;;10.81;100.00
12626;BME280;6378;42.684;23.372;2023-03-22T07:16:32;94876.88;;;10.97;100.00
12626;BME280;6378;42.684;23.372;2023-03-22T07:18:57;94883.38;;;10.96;100.00
12626;BME280;6378;42.684;23.372;2023-03-22T07:21:23;94878.38;;;10.94;100.00
12626;BME280;6378;42.684;23.372;2023-03-22T07:23:48;94871.66;;;11.04;100.00
12626;BME280;6378;42.684;23.372;2023-03-22T07:26:13;94880.78;;;10.99;100.00
12626;BME280;6378;42.684;23.372;2023-03-22T07:28:39;94883.56;;;11.03;100.00
12626;BME280;6378;42.684;23.372;2023-03-22T07:31:08;94888.22;;;11.06;100.00
12626;BME280;6378;42.684;23.372;2023-03-22T07:33:37;94883.28;;;11.08;100.00
12626;BME280;6378;42.684;23.372;2023-03-22T07:36:06;94885.13;;;11.04;100.00
12626;BME280;6378;42.684;23.372;2023-03-22T07:38:32;94855.38;;;10.81;100.00
12626;BME280;6378;42.684;23.372;2023-03-22T07:40:57;94888.09;;;10.99;100.00
12626;BME280;6378;42.684;23.372;2023-03-22T07:43:23;94889.81;;;11.07;100.00
12626;BME280;6378;42.684;23.372;2023-03-22T07:45:49;94894.41;;;11.06;100.00
12626;BME280;6378;42.684;23.372;2023-03-22T07:48:15;94896.38;;;11.09;100.00
12626;BME280;6378;42.684;23.372;2023-03-22T07:50:41;94907.25;;;11.13;100.00
12626;BME280;6378;42.684;23.372;2023-03-22T07:53:07;94879.59;;;11.16;100.00
12626;BME280;6378;42.684;23.372;2023-03-22T07:55:33;94901.34;;;11.42;100.00
12626;BME280;6378;42.684;23.372;2023-03-22T07:57:59;94911.63;;;11.56;100.00
12626;BME280;6378;42.684;23.372;2023-03-22T08:00:25;94904.56;;;11.48;100.00
12626;BME280;6378;42.684;23.372;2023-03-22T08:02:51;94905.16;;;11.41;100.00
12626;BME280;6378;42.684;23.372;2023-03-22T08:05:16;94900.41;;;11.35;100.00
12626;BME280;6378;42.684;23.372;2023-03-22T08:07:42;94911.91;;;11.32;100.00
12626;BME280;6378;42.684;23.372;2023-03-22T08:10:08;94884.72;;;11.21;100.00
12626;BME280;6378;42.684;23.372;2023-03-22T08:12:33;94905.78;;;11.35;100.00
12626;BME280;6378;42.684;23.372;2023-03-22T08:14:59;94906.94;;;11.34;100.00
12626;BME280;6378;42.684;23.372;2023-03-22T08:17:24;94876.63;;;11.21;100.00
12626;BME280;6378;42.684;23.372;2023-03-22T08:19:51;94878.63;;;11.24;100.00
12626;BME280;6378;42.684;23.372;2023-03-22T08:22:18;94904.72;;;11.39;100.00
12626;BME280;6378;42.684;23.372;2023-03-22T08:24:47;94903.25;;;11.42;100.00
12626;BME280;6378;42.684;23.372;2023-03-22T08:27:13;94910.56;;;11.41;100.00
12626;BME280;6378;42.684;23.372;2023-03-22T08:29:38;94915.16;;;11.41;100.00
12626;BME280;6378;42.684;23.372;2023-03-22T08:32:04;94913.25;;;11.41;100.00
12626;BME280;6378;42.684;23.372;2023-03-22T08:34:30;94890.69;;;11.30;100.00
12626;BME280;6378;42.684;23.372;2023-03-22T08:36:55;94921.69;;;11.40;100.00
12626;BME280;6378;42.684;23.372;2023-03-22T08:39:21;94917.25;;;11.47;100.00
12626;BME280;6378;42.684;23.372;2023-03-22T08:41:47;94918.38;;;11.46;100.00
12626;BME280;6378;42.684;23.372;2023-03-22T08:44:13;94923.75;;;11.46;100.00
12626;BME280;6378;42.684;23.372;2023-03-22T08:46:38;94920.63;;;11.44;100.00
12626;BME280;6378;42.684;23.372;2023-03-22T08:49:04;94918.03;;;11.48;100.00
12626;BME280;6378;42.684;23.372;2023-03-22T08:51:29;94918.59;;;11.57;100.00
12626;BME280;6378;42.684;23.372;2023-03-22T08:53:55;94922.47;;;11.59;100.00
12626;BME280;6378;42.684;23.372;2023-03-22T08:56:24;94925.69;;;11.65;100.00
12626;BME280;6378;42.684;23.372;2023-03-22T08:58:51;94911.91;;;11.70;100.00
12626;BME280;6378;42.684;23.372;2023-03-22T09:01:16;94933.53;;;11.89;100.00
12626;BME280;6378;42.684;23.372;2023-03-22T09:03:44;94923.44;;;11.86;100.00
12626;BME280;6378;42.684;23.372;2023-03-22T09:06:09;94899.94;;;11.48;100.00
12626;BME280;6378;42.684;23.372;2023-03-22T09:08:35;94892.47;;;11.42;100.00
12626;BME280;6378;42.684;23.372;2023-03-22T09:11:01;94922.06;;;11.57;100.00
12626;BME280;6378;42.684;23.372;2023-03-22T09:13:27;94895.66;;;11.28;100.00
12626;BME280;6378;42.684;23.372;2023-03-22T09:15:54;94926.09;;;11.48;100.00
12626;BME280;6378;42.684;23.372;2023-03-22T09:18:20;94933.13;;;11.52;100.00
12626;BME280;6378;42.684;23.372;2023-03-22T09:20:48;94926.91;;;11.48;100.00
12626;BME280;6378;42.684;23.372;2023-03-22T09:23:14;94932.13;;;11.41;100.00
12626;BME280;6378;42.684;23.372;2023-03-22T09:25:47;94934.47;;;11.43;100.00
12626;BME280;6378;42.684;23.372;2023-03-22T09:28:12;94940.03;;;11.34;100.00
12626;BME280;6378;42.684;23.372;2023-03-22T09:30:38;94930.03;;;11.35;100.00
12626;BME280;6378;42.684;23.372;2023-03-22T09:33:04;94913.78;;;11.12;100.00
12626;BME280;6378;42.684;23.372;2023-03-22T09:35:31;94910.59;;;11.25;100.00
12626;BME280;6378;42.684;23.372;2023-03-22T09:37:56;94897.16;;;11.10;100.00
12626;BME280;6378;42.684;23.372;2023-03-22T09:40:31;94943.25;;;11.40;100.00
12626;BME280;6378;42.684;23.372;2023-03-22T09:43:00;94911.81;;;11.28;100.00
12626;BME280;6378;42.684;23.372;2023-03-22T09:45:33;94937.81;;;11.55;100.00
12626;BME280;6378;42.684;23.372;2023-03-22T09:48:05;94940.28;;;11.64;100.00
12626;BME280;6378;42.684;23.372;2023-03-22T09:50:45;94935.28;;;11.62;100.00
12626;BME280;6378;42.684;23.372;2023-03-22T09:53:13;94941.91;;;11.68;100.00
12626;BME280;6378;42.684;23.372;2023-03-22T09:55:48;94940.75;;;11.85;100.00
12626;BME280;6378;42.684;23.372;2023-03-22T10:04:09;94933.28;;;11.98;100.00
12626;BME280;6378;42.684;23.372;2023-03-22T10:06:45;94917.00;;;11.91;100.00
12626;BME280;6378;42.684;23.372;2023-03-22T10:14:37;94939.91;;;12.00;100.00
12626;BME280;6378;42.684;23.372;2023-03-22T10:17:24;94947.50;;;12.14;100.00
12626;BME280;6378;42.684;23.372;2023-03-22T10:19:58;94946.47;;;12.22;100.00
12626;BME280;6378;42.684;23.372;2023-03-22T10:22:31;94953.94;;;12.29;100.00
12626;BME280;6378;42.684;23.372;2023-03-22T10:24:59;94914.91;;;12.03;100.00
12626;BME280;6378;42.684;23.372;2023-03-22T10:27:27;94950.34;;;12.21;100.00
12626;BME280;6378;42.684;23.372;2023-03-22T10:35:04;94944.75;;;12.33;100.00
12626;BME280;6378;42.684;23.372;2023-03-22T10:37:34;94938.66;;;12.36;100.00
12626;BME280;6378;42.684;23.372;2023-03-22T10:40:03;94940.34;;;12.44;100.00
12626;BME280;6378;42.684;23.372;2023-03-22T10:42:35;94941.00;;;12.38;100.00
12626;BME280;6378;42.684;23.372;2023-03-22T10:45:06;94936.38;;;12.38;100.00
12626;BME280;6378;42.684;23.372;2023-03-22T10:47:42;94937.66;;;12.44;100.00
12626;BME280;6378;42.684;23.372;2023-03-22T10:50:18;94947.31;;;12.45;100.00
12626;BME280;6378;42.684;23.372;2023-03-22T10:53:02;94947.56;;;12.59;100.00
12626;BME280;6378;42.684;23.372;2023-03-22T10:55:29;94945.38;;;12.69;100.00
12626;BME280;6378;42.684;23.372;2023-03-22T10:58:15;94909.28;;;12.31;100.00
12626;BME280;6378;42.684;23.372;2023-03-22T11:00:46;94931.50;;;12.47;100.00
12626;BME280;6378;42.684;23.372;2023-03-22T11:11:24;94933.31;;;12.40;100.00
12626;BME280;6378;42.684;23.372;2023-03-22T11:14:12;94929.28;;;12.30;100.00
12626;BME280;6378;42.684;23.372;2023-03-22T11:16:57;94928.50;;;12.30;100.00
12626;BME280;6378;42.684;23.372;2023-03-22T11:19:26;94913.69;;;12.20;100.00
12626;BME280;6378;42.684;23.372;2023-03-22T11:21:54;94932.28;;;12.25;100.00
12626;BME280;6378;42.684;23.372;2023-03-22T11:24:24;94931.50;;;12.25;100.00
12626;BME280;6378;42.684;23.372;2023-03-22T11:27:05;94929.94;;;12.24;100.00
12626;BME280;6378;42.684;23.372;2023-03-22T11:29:49;94927.53;;;12.19;100.00
12626;BME280;6378;42.684;23.372;2023-03-22T11:32:24;94926.63;;;12.11;100.00
12626;BME280;6378;42.684;23.372;2023-03-22T11:35:14;94927.41;;;12.11;100.00
12626;BME280;6378;42.684;23.372;2023-03-22T11:37:49;94901.59;;;11.91;100.00
12626;BME280;6378;42.684;23.372;2023-03-22T11:42:51;94910.94;;;11.97;100.00
12626;BME280;6378;42.684;23.372;2023-03-22T11:45:29;94918.28;;;11.97;100.00
12626;BME280;6378;42.684;23.372;2023-03-22T11:48:08;94917.53;;;12.00;100.00
12626;BME280;6378;42.684;23.372;2023-03-22T11:50:36;94905.47;;;11.94;100.00
12626;BME280;6378;42.684;23.372;2023-03-22T11:53:06;94921.09;;;12.04;100.00
12626;BME280;6378;42.684;23.372;2023-03-22T11:55:34;94905.84;;;11.92;100.00
12626;BME280;6378;42.684;23.372;2023-03-22T11:58:04;94928.91;;;12.09;100.00
12626;BME280;6378;42.684;23.372;2023-03-22T12:00:33;94911.81;;;12.01;100.00
12626;BME280;6378;42.684;23.372;2023-03-22T12:03:05;94923.38;;;12.02;100.00
12626;BME280;6378;42.684;23.372;2023-03-22T12:05:36;94922.66;;;12.05;100.00
12626;BME280;6378;42.684;23.372;2023-03-22T12:08:35;94926.91;;;12.06;100.00
12626;BME280;6378;42.684;23.372;2023-03-22T12:11:05;94931.88;;;12.04;100.00
12626;BME280;6378;42.684;23.372;2023-03-22T12:13:38;94928.84;;;12.05;100.00
12626;BME280;6378;42.684;23.372;2023-03-22T12:16:11;94919.63;;;12.29;100.00
12626;BME280;6378;42.684;23.372;2023-03-22T12:19:02;94919.94;;;12.47;100.00
12626;BME280;6378;42.684;23.372;2023-03-22T12:21:30;94916.09;;;12.71;100.00
12626;BME280;6378;42.684;23.372;2023-03-22T12:23:58;94916.88;;;12.71;100.00
12626;BME280;6378;42.684;23.372;2023-03-22T12:26:26;94909.94;;;12.70;100.00
12626;BME280;6378;42.684;23.372;2023-03-22T12:29:07;94910.47;;;12.79;100.00
12626;BME280;6378;42.684;23.372;2023-03-22T12:31:43;94906.19;;;12.78;100.00
12626;BME280;6378;42.684;23.372;2023-03-22T12:34:16;94910.69;;;12.93;100.00
12626;BME280;6378;42.684;23.372;2023-03-22T12:36:48;94911.56;;;13.01;100.00
12626;BME280;6378;42.684;23.372;2023-03-22T12:39:24;94875.72;;;12.78;100.00
12626;BME280;6378;42.684;23.372;2023-03-22T12:41:52;94901.66;;;13.09;100.00
12626;BME280;6378;42.684;23.372;2023-03-22T12:44:28;94912.66;;;13.19;100.00
12626;BME280;6378;42.684;23.372;2023-03-22T12:47:00;94900.75;;;13.24;100.00
12626;BME280;6378;42.684;23.372;2023-03-22T12:52:52;94906.81;;;13.17;100.00
12626;BME280;6378;42.684;23.372;2023-03-22T12:55:37;94904.47;;;13.42;100.00
12626;BME280;6378;42.684;23.372;2023-03-22T12:58:07;94901.34;;;13.70;100.00
12626;BME280;6378;42.684;23.372;2023-03-22T13:00:35;94904.75;;;13.97;100.00
12626;BME280;6378;42.684;23.372;2023-03-22T13:05:47;94901.47;;;13.51;100.00
12626;BME280;6378;42.684;23.372;2023-03-22T13:08:20;94910.53;;;13.35;100.00
12626;BME280;6378;42.684;23.372;2023-03-22T13:10:59;94899.53;;;13.21;100.00
12626;BME280;6378;42.684;23.372;2023-03-22T13:18:54;94898.63;;;12.87;100.00
12626;BME280;6378;42.684;23.372;2023-03-22T13:21:24;94881.09;;;12.78;100.00
12626;BME280;6378;42.684;23.372;2023-03-22T13:26:43;94892.75;;;12.82;100.00
12626;BME280;6378;42.684;23.372;2023-03-22T13:29:36;94887.75;;;12.84;100.00
12626;BME280;6378;42.684;23.372;2023-03-22T13:32:05;94889.94;;;12.75;100.00
12626;BME280;6378;42.684;23.372;2023-03-22T13:34:39;94889.88;;;12.71;100.00
12626;BME280;6378;42.684;23.372;2023-03-22T13:39:54;94903.28;;;12.64;100.00
12626;BME280;6378;42.684;23.372;2023-03-22T13:42:35;94898.53;;;12.57;100.00
12626;BME280;6378;42.684;23.372;2023-03-22T13:45:01;94896.25;;;12.59;100.00
12626;BME280;6378;42.684;23.372;2023-03-22T13:52:40;94908.00;;;12.71;100.00
12626;BME280;6378;42.684;23.372;2023-03-22T13:58:02;94898.88;;;12.56;100.00
12626;BME280;6378;42.684;23.372;2023-03-22T14:03:14;94890.25;;;12.70;100.00
12626;BME280;6378;42.684;23.372;2023-03-22T14:05:43;94889.81;;;12.68;100.00
12626;BME280;6378;42.684;23.372;2023-03-22T14:08:23;94866.44;;;12.52;100.00
12626;BME280;6378;42.684;23.372;2023-03-22T14:10:57;94890.50;;;12.87;100.00
12626;BME280;6378;42.684;23.372;2023-03-22T14:13:42;94885.38;;;12.79;100.00
12626;BME280;6378;42.684;23.372;2023-03-22T14:16:17;94893.94;;;12.84;100.00
12626;BME280;6378;42.684;23.372;2023-03-22T14:18:46;94898.16;;;12.82;100.00
12626;BME280;6378;42.684;23.372;2023-03-22T14:21:17;94887.94;;;12.72;100.00
12626;BME280;6378;42.684;23.372;2023-03-22T14:23:46;94897.56;;;12.95;100.00
12626;BME280;6378;42.684;23.372;2023-03-22T14:26:50;94899.66;;;13.06;100.00
12626;BME280;6378;42.684;23.372;2023-03-22T14:29:18;94896.59;;;13.07;100.00
12626;BME280;6378;42.684;23.372;2023-03-22T14:31:45;94892.66;;;13.01;100.00
12626;BME280;6378;42.684;23.372;2023-03-22T14:34:17;94892.72;;;13.05;100.00
12626;BME280;6378;42.684;23.372;2023-03-22T14:36:45;94892.84;;;13.12;100.00